sensor_id;sensor_type;location;lat;lon;timestamp;P1;durP1;ratioP1;P2;durP2;ratioP2
21036;SDS011;10677;50.942;4.028;2023-04-24T00:00:10;23.02;;;13.57;;
21036;SDS011;10677;50.942;4.028;2023-04-24T00:02:39;25.30;;;13.68;;
21036;SDS011;10677;50.942;4.028;2023-04-24T00:05:06;24.02;;;12.93;;
21036;SDS011;10677;50.942;4.028;2023-04-24T00:07:33;27.30;;;13.43;;
21036;SDS011;10677;50.942;4.028;2023-04-24T00:10:00;24.45;;;13.75;;
21036;SDS011;10677;50.942;4.028;2023-04-24T00:12:26;26.42;;;14.15;;
21036;SDS011;10677;50.942;4.028;2023-04-24T00:14:52;25.90;;;13.25;;
21036;SDS011;10677;50.942;4.028;2023-04-24T00:17:18;19.35;;;12.65;;
21036;SDS011;10677;50.942;4.028;2023-04-24T00:19:46;19.33;;;12.88;;
21036;SDS011;10677;50.942;4.028;2023-04-24T00:22:16;21.73;;;12.18;;
21036;SDS011;10677;50.942;4.028;2023-04-24T00:24:42;23.63;;;13.00;;
21036;SDS011;10677;50.942;4.028;2023-04-24T00:27:08;24.10;;;12.68;;
21036;SDS011;10677;50.942;4.028;2023-04-24T00:29:33;22.48;;;13.50;;
21036;SDS011;10677;50.942;4.028;2023-04-24T00:31:59;25.60;;;13.55;;
21036;SDS011;10677;50.942;4.028;2023-04-24T00:34:25;23.65;;;12.82;;
21036;SDS011;10677;50.942;4.028;2023-04-24T00:36:51;28.23;;;14.23;;
21036;SDS011;10677;50.942;4.028;2023-04-24T00:39:20;21.70;;;14.02;;
21036;SDS011;10677;50.942;4.028;2023-04-24T00:41:47;22.45;;;12.60;;
21036;SDS011;10677;50.942;4.028;2023-04-24T00:44:13;19.13;;;12.95;;
21036;SDS011;10677;50.942;4.028;2023-04-24T00:46:40;22.58;;;13.88;;
21036;SDS011;10677;50.942;4.028;2023-04-24T00:49:06;22.25;;;12.95;;
21036;SDS011;10677;50.942;4.028;2023-04-24T00:51:32;22.60;;;13.23;;
21036;SDS011;10677;50.942;4.028;2023-04-24T00:53:58;22.70;;;12.95;;
21036;SDS011;10677;50.942;4.028;2023-04-24T00:56:25;26.80;;;13.13;;
21036;SDS011;10677;50.942;4.028;2023-04-24T00:58:51;28.27;;;13.30;;
21036;SDS011;10677;50.942;4.028;2023-04-24T01:01:18;23.05;;;13.25;;
21036;SDS011;10677;50.942;4.028;2023-04-24T01:03:45;23.38;;;11.70;;
21036;SDS011;10677;50.942;4.028;2023-04-24T01:06:12;20.52;;;12.07;;
21036;SDS011;10677;50.942;4.028;2023-04-24T01:08:39;17.98;;;10.68;;
21036;SDS011;10677;50.942;4.028;2023-04-24T01:11:05;18.98;;;10.73;;
21036;SDS011;10677;50.942;4.028;2023-04-24T01:13:32;18.25;;;10.70;;
21036;SDS011;10677;50.942;4.028;2023-04-24T01:15:58;18.50;;;11.20;;
21036;SDS011;10677;50.942;4.028;2023-04-24T01:18:25;16.73;;;9.77;;
21036;SDS011;10677;50.942;4.028;2023-04-24T01:20:53;18.33;;;9.35;;
21036;SDS011;10677;50.942;4.028;2023-04-24T01:23:21;15.27;;;9.93;;
21036;SDS011;10677;50.942;4.028;2023-04-24T01:25:47;16.70;;;8.73;;
21036;SDS011;10677;50.942;4.028;2023-04-24T01:28:16;12.27;;;8.13;;
21036;SDS011;10677;50.942;4.028;2023-04-24T01:30:42;11.88;;;7.55;;
21036;SDS011;10677;50.942;4.028;2023-04-24T01:33:09;13.85;;;8.55;;
21036;SDS011;10677;50.942;4.028;2023-04-24T01:35:36;13.85;;;8.23;;
21036;SDS011;10677;50.942;4.028;2023-04-24T01:38:03;13.52;;;7.18;;
21036;SDS011;10677;50.942;4.028;2023-04-24T01:40:29;10.73;;;7.05;;
21036;SDS011;10677;50.942;4.028;2023-04-24T01:42:55;9.77;;;6.45;;
21036;SDS011;10677;50.942;4.028;2023-04-24T01:45:21;11.63;;;6.80;;
21036;SDS011;10677;50.942;4.028;2023-04-24T01:47:47;11.80;;;6.95;;
21036;SDS011;10677;50.942;4.028;2023-04-24T01:50:14;11.82;;;6.97;;
21036;SDS011;10677;50.942;4.028;2023-04-24T01:52:39;11.95;;;7.32;;
21036;SDS011;10677;50.942;4.028;2023-04-24T01:55:05;13.07;;;8.30;;
21036;SDS011;10677;50.942;4.028;2023-04-24T01:57:32;15.23;;;8.95;;
21036;SDS011;10677;50.942;4.028;2023-04-24T01:59:58;15.68;;;9.38;;
21036;SDS011;10677;50.942;4.028;2023-04-24T02:02:24;14.32;;;9.25;;
21036;SDS011;10677;50.942;4.028;2023-04-24T02:04:52;16.30;;;10.40;;
21036;SDS011;10677;50.942;4.028;2023-04-24T02:07:19;17.08;;;11.40;;
21036;SDS011;10677;50.942;4.028;2023-04-24T02:09:44;19.40;;;11.65;;
21036;SDS011;10677;50.942;4.028;2023-04-24T02:12:10;14.80;;;10.60;;
21036;SDS011;10677;50.942;4.028;2023-04-24T02:14:36;16.80;;;10.98;;
21036;SDS011;10677;50.942;4.028;2023-04-24T02:17:01;19.83;;;11.13;;
21036;SDS011;10677;50.942;4.028;2023-04-24T02:19:27;23.20;;;11.63;;
21036;SDS011;10677;50.942;4.028;2023-04-24T02:21:55;20.98;;;12.05;;
21036;SDS011;10677;50.942;4.028;2023-04-24T02:24:21;22.40;;;12.38;;
21036;SDS011;10677;50.942;4.028;2023-04-24T02:26:47;17.67;;;11.02;;
21036;SDS011;10677;50.942;4.028;2023-04-24T02:29:12;18.10;;;11.68;;
21036;SDS011;10677;50.942;4.028;2023-04-24T02:31:38;20.67;;;12.20;;
21036;SDS011;10677;50.942;4.028;2023-04-24T02:34:03;17.80;;;11.85;;
21036;SDS011;10677;50.942;4.028;2023-04-24T02:36:29;17.38;;;10.77;;
21036;SDS011;10677;50.942;4.028;2023-04-24T02:38:55;20.50;;;11.63;;
21036;SDS011;10677;50.942;4.028;2023-04-24T02:41:21;17.23;;;10.45;;
21036;SDS011;10677;50.942;4.028;2023-04-24T02:43:46;21.17;;;11.30;;
21036;SDS011;10677;50.942;4.028;2023-04-24T02:46:12;17.13;;;10.90;;
21036;SDS011;10677;50.942;4.028;2023-04-24T02:48:40;20.73;;;10.07;;
21036;SDS011;10677;50.942;4.028;2023-04-24T02:51:05;17.98;;;10.68;;
21036;SDS011;10677;50.942;4.028;2023-04-24T02:53:31;15.20;;;9.73;;
21036;SDS011;10677;50.942;4.028;2023-04-24T02:55:57;17.00;;;10.45;;
21036;SDS011;10677;50.942;4.028;2023-04-24T02:58:23;14.93;;;10.07;;
21036;SDS011;10677;50.942;4.028;2023-04-24T03:00:52;14.43;;;9.20;;
21036;SDS011;10677;50.942;4.028;2023-04-24T03:03:19;15.95;;;9.85;;
21036;SDS011;10677;50.942;4.028;2023-04-24T03:05:45;13.15;;;8.45;;
21036;SDS011;10677;50.942;4.028;2023-04-24T03:08:10;13.90;;;9.65;;
21036;SDS011;10677;50.942;4.028;2023-04-24T03:10:37;15.77;;;8.73;;
21036;SDS011;10677;50.942;4.028;2023-04-24T03:13:03;14.05;;;8.10;;
21036;SDS011;10677;50.942;4.028;2023-04-24T03:15:28;11.15;;;7.13;;
21036;SDS011;10677;50.942;4.028;2023-04-24T03:17:54;11.50;;;8.18;;
21036;SDS011;10677;50.942;4.028;2023-04-24T03:20:20;13.45;;;7.65;;
21036;SDS011;10677;50.942;4.028;2023-04-24T03:22:46;13.50;;;8.40;;
21036;SDS011;10677;50.942;4.028;2023-04-24T03:25:12;13.77;;;7.88;;
21036;SDS011;10677;50.942;4.028;2023-04-24T03:27:37;11.68;;;7.50;;
21036;SDS011;10677;50.942;4.028;2023-04-24T03:30:04;10.95;;;7.65;;
21036;SDS011;10677;50.942;4.028;2023-04-24T03:32:31;10.52;;;7.10;;
21036;SDS011;10677;50.942;4.028;2023-04-24T03:34:57;10.23;;;7.35;;
21036;SDS011;10677;50.942;4.028;2023-04-24T03:37:23;12.18;;;8.20;;
21036;SDS011;10677;50.942;4.028;2023-04-24T03:39:48;13.82;;;7.70;;
21036;SDS011;10677;50.942;4.028;2023-04-24T03:42:14;10.93;;;6.60;;
21036;SDS011;10677;50.942;4.028;2023-04-24T03:44:40;10.65;;;6.53;;
21036;SDS011;10677;50.942;4.028;2023-04-24T03:47:05;13.30;;;7.50;;
21036;SDS011;10677;50.942;4.028;2023-04-24T03:49:31;12.40;;;7.72;;
21036;SDS011;10677;50.942;4.028;2023-04-24T03:51:57;12.57;;;7.13;;
21036;SDS011;10677;50.942;4.028;2023-04-24T03:54:22;13.38;;;7.20;;
21036;SDS011;10677;50.942;4.028;2023-04-24T03:56:48;13.13;;;7.00;;
21036;SDS011;10677;50.942;4.028;2023-04-24T03:59:13;12.02;;;7.68;;
21036;SDS011;10677;50.942;4.028;2023-04-24T04:01:39;13.57;;;7.10;;
21036;SDS011;10677;50.942;4.028;2023-04-24T04:04:08;13.82;;;7.38;;
21036;SDS011;10677;50.942;4.028;2023-04-24T04:06:33;12.40;;;6.72;;
21036;SDS011;10677;50.942;4.028;2023-04-24T04:09:01;10.75;;;7.00;;
21036;SDS011;10677;50.942;4.028;2023-04-24T04:11:27;14.13;;;7.70;;
21036;SDS011;10677;50.942;4.028;2023-04-24T04:13:52;19.33;;;8.02;;
21036;SDS011;10677;50.942;4.028;2023-04-24T04:16:18;15.07;;;9.32;;
21036;SDS011;10677;50.942;4.028;2023-04-24T04:18:44;17.98;;;10.52;;
21036;SDS011;10677;50.942;4.028;2023-04-24T04:21:10;18.02;;;10.43;;
21036;SDS011;10677;50.942;4.028;2023-04-24T04:23:36;25.33;;;12.13;;
21036;SDS011;10677;50.942;4.028;2023-04-24T04:26:01;21.17;;;11.40;;
21036;SDS011;10677;50.942;4.028;2023-04-24T04:28:28;21.73;;;11.52;;
21036;SDS011;10677;50.942;4.028;2023-04-24T04:30:56;21.38;;;12.23;;
21036;SDS011;10677;50.942;4.028;2023-04-24T04:33:23;19.65;;;12.88;;
21036;SDS011;10677;50.942;4.028;2023-04-24T04:35:49;24.13;;;12.68;;
21036;SDS011;10677;50.942;4.028;2023-04-24T04:38:17;24.40;;;12.57;;
21036;SDS011;10677;50.942;4.028;2023-04-24T04:40:43;24.70;;;14.65;;
21036;SDS011;10677;50.942;4.028;2023-04-24T04:43:09;22.67;;;13.93;;
21036;SDS011;10677;50.942;4.028;2023-04-24T04:45:36;29.23;;;15.00;;
21036;SDS011;10677;50.942;4.028;2023-04-24T04:48:04;24.92;;;13.60;;
21036;SDS011;10677;50.942;4.028;2023-04-24T04:50:32;27.08;;;14.85;;
21036;SDS011;10677;50.942;4.028;2023-04-24T04:52:58;26.00;;;13.18;;
21036;SDS011;10677;50.942;4.028;2023-04-24T04:55:23;24.52;;;13.52;;
21036;SDS011;10677;50.942;4.028;2023-04-24T04:57:49;25.00;;;14.32;;
21036;SDS011;10677;50.942;4.028;2023-04-24T05:00:15;24.58;;;13.82;;
21036;SDS011;10677;50.942;4.028;2023-04-24T05:02:41;24.70;;;13.90;;
21036;SDS011;10677;50.942;4.028;2023-04-24T05:05:07;26.52;;;13.73;;
21036;SDS011;10677;50.942;4.028;2023-04-24T05:07:33;23.50;;;13.75;;
21036;SDS011;10677;50.942;4.028;2023-04-24T05:09:59;23.50;;;14.02;;
21036;SDS011;10677;50.942;4.028;2023-04-24T05:12:25;22.50;;;13.55;;
21036;SDS011;10677;50.942;4.028;2023-04-24T05:14:50;27.80;;;13.77;;
21036;SDS011;10677;50.942;4.028;2023-04-24T05:17:17;23.27;;;12.70;;
21036;SDS011;10677;50.942;4.028;2023-04-24T05:19:43;28.77;;;13.57;;
21036;SDS011;10677;50.942;4.028;2023-04-24T05:22:10;23.20;;;13.23;;
21036;SDS011;10677;50.942;4.028;2023-04-24T05:24:36;22.88;;;12.85;;
21036;SDS011;10677;50.942;4.028;2023-04-24T05:27:02;25.55;;;13.85;;
21036;SDS011;10677;50.942;4.028;2023-04-24T05:29:29;25.35;;;13.30;;
21036;SDS011;10677;50.942;4.028;2023-04-24T05:31:56;21.00;;;12.90;;
21036;SDS011;10677;50.942;4.028;2023-04-24T05:34:22;25.63;;;14.02;;
21036;SDS011;10677;50.942;4.028;2023-04-24T05:36:48;25.70;;;13.45;;
21036;SDS011;10677;50.942;4.028;2023-04-24T05:39:15;29.70;;;14.10;;
21036;SDS011;10677;50.942;4.028;2023-04-24T05:41:41;28.50;;;13.73;;
21036;SDS011;10677;50.942;4.028;2023-04-24T05:44:09;24.77;;;13.75;;
21036;SDS011;10677;50.942;4.028;2023-04-24T05:46:36;25.17;;;13.18;;
21036;SDS011;10677;50.942;4.028;2023-04-24T05:49:02;25.50;;;13.20;;
21036;SDS011;10677;50.942;4.028;2023-04-24T05:51:28;27.70;;;12.57;;
21036;SDS011;10677;50.942;4.028;2023-04-24T05:53:53;24.70;;;13.45;;
21036;SDS011;10677;50.942;4.028;2023-04-24T05:56:19;34.38;;;14.10;;
21036;SDS011;10677;50.942;4.028;2023-04-24T05:58:45;25.23;;;14.35;;
21036;SDS011;10677;50.942;4.028;2023-04-24T06:01:12;30.40;;;14.15;;
21036;SDS011;10677;50.942;4.028;2023-04-24T06:03:39;25.63;;;15.00;;
21036;SDS011;10677;50.942;4.028;2023-04-24T06:06:06;25.67;;;14.70;;
21036;SDS011;10677;50.942;4.028;2023-04-24T06:08:33;25.70;;;14.63;;
21036;SDS011;10677;50.942;4.028;2023-04-24T06:10:58;30.90;;;14.73;;
21036;SDS011;10677;50.942;4.028;2023-04-24T06:13:24;30.33;;;15.05;;
21036;SDS011;10677;50.942;4.028;2023-04-24T06:15:50;24.00;;;14.85;;
21036;SDS011;10677;50.942;4.028;2023-04-24T06:18:17;29.27;;;15.93;;
21036;SDS011;10677;50.942;4.028;2023-04-24T06:20:43;27.77;;;14.95;;
21036;SDS011;10677;50.942;4.028;2023-04-24T06:23:08;31.50;;;16.35;;
21036;SDS011;10677;50.942;4.028;2023-04-24T06:25:34;25.98;;;15.60;;
21036;SDS011;10677;50.942;4.028;2023-04-24T06:28:00;29.30;;;15.90;;
21036;SDS011;10677;50.942;4.028;2023-04-24T06:30:26;30.00;;;15.65;;
21036;SDS011;10677;50.942;4.028;2023-04-24T06:32:53;32.80;;;16.90;;
21036;SDS011;10677;50.942;4.028;2023-04-24T06:35:18;31.48;;;17.50;;
21036;SDS011;10677;50.942;4.028;2023-04-24T06:37:44;35.42;;;16.52;;
21036;SDS011;10677;50.942;4.028;2023-04-24T06:40:11;30.10;;;17.52;;
21036;SDS011;10677;50.942;4.028;2023-04-24T06:42:36;31.65;;;15.88;;
21036;SDS011;10677;50.942;4.028;2023-04-24T06:45:04;33.40;;;16.30;;
21036;SDS011;10677;50.942;4.028;2023-04-24T06:47:30;33.03;;;16.33;;
21036;SDS011;10677;50.942;4.028;2023-04-24T06:49:57;28.00;;;13.70;;
21036;SDS011;10677;50.942;4.028;2023-04-24T06:52:23;31.55;;;15.70;;
21036;SDS011;10677;50.942;4.028;2023-04-24T06:54:48;27.98;;;14.68;;
21036;SDS011;10677;50.942;4.028;2023-04-24T06:57:14;29.50;;;14.00;;
21036;SDS011;10677;50.942;4.028;2023-04-24T06:59:41;28.52;;;13.93;;
21036;SDS011;10677;50.942;4.028;2023-04-24T07:02:07;26.73;;;14.57;;
21036;SDS011;10677;50.942;4.028;2023-04-24T07:04:32;27.05;;;13.70;;
21036;SDS011;10677;50.942;4.028;2023-04-24T07:06:58;28.88;;;12.43;;
21036;SDS011;10677;50.942;4.028;2023-04-24T07:09:25;26.92;;;13.38;;
21036;SDS011;10677;50.942;4.028;2023-04-24T07:11:51;30.00;;;13.38;;
21036;SDS011;10677;50.942;4.028;2023-04-24T07:14:18;30.63;;;13.02;;
21036;SDS011;10677;50.942;4.028;2023-04-24T07:16:44;27.33;;;12.82;;
21036;SDS011;10677;50.942;4.028;2023-04-24T07:19:10;28.00;;;13.25;;
21036;SDS011;10677;50.942;4.028;2023-04-24T07:21:37;31.13;;;13.63;;
21036;SDS011;10677;50.942;4.028;2023-04-24T07:24:04;26.17;;;13.70;;
21036;SDS011;10677;50.942;4.028;2023-04-24T07:26:30;29.75;;;14.00;;
21036;SDS011;10677;50.942;4.028;2023-04-24T07:28:56;29.10;;;12.15;;
21036;SDS011;10677;50.942;4.028;2023-04-24T07:31:22;25.88;;;12.88;;
21036;SDS011;10677;50.942;4.028;2023-04-24T07:33:48;25.83;;;13.10;;
21036;SDS011;10677;50.942;4.028;2023-04-24T07:36:14;21.27;;;11.02;;
21036;SDS011;10677;50.942;4.028;2023-04-24T07:38:43;23.70;;;11.07;;
21036;SDS011;10677;50.942;4.028;2023-04-24T07:41:09;23.77;;;10.32;;
21036;SDS011;10677;50.942;4.028;2023-04-24T07:43:35;19.17;;;9.90;;
21036;SDS011;10677;50.942;4.028;2023-04-24T07:46:01;22.52;;;10.23;;
21036;SDS011;10677;50.942;4.028;2023-04-24T07:48:27;29.05;;;10.95;;
21036;SDS011;10677;50.942;4.028;2023-04-24T07:50:53;25.05;;;10.20;;
21036;SDS011;10677;50.942;4.028;2023-04-24T07:53:19;25.17;;;9.57;;
21036;SDS011;10677;50.942;4.028;2023-04-24T07:55:45;22.65;;;9.40;;
21036;SDS011;10677;50.942;4.028;2023-04-24T07:58:11;22.65;;;9.35;;
21036;SDS011;10677;50.942;4.028;2023-04-24T08:00:36;19.83;;;8.77;;
21036;SDS011;10677;50.942;4.028;2023-04-24T08:03:02;21.15;;;9.30;;
21036;SDS011;10677;50.942;4.028;2023-04-24T08:05:28;20.75;;;9.10;;
21036;SDS011;10677;50.942;4.028;2023-04-24T08:07:54;14.50;;;8.13;;
21036;SDS011;10677;50.942;4.028;2023-04-24T08:10:23;21.67;;;8.70;;
21036;SDS011;10677;50.942;4.028;2023-04-24T08:12:49;19.63;;;7.20;;
21036;SDS011;10677;50.942;4.028;2023-04-24T08:15:14;16.35;;;7.10;;
21036;SDS011;10677;50.942;4.028;2023-04-24T08:17:40;19.02;;;6.82;;
21036;SDS011;10677;50.942;4.028;2023-04-24T08:20:06;17.67;;;7.60;;
21036;SDS011;10677;50.942;4.028;2023-04-24T08:22:38;14.55;;;7.75;;
21036;SDS011;10677;50.942;4.028;2023-04-24T08:25:08;16.40;;;7.25;;
21036;SDS011;10677;50.942;4.028;2023-04-24T08:27:36;23.48;;;7.50;;
21036;SDS011;10677;50.942;4.028;2023-04-24T08:30:04;16.25;;;7.00;;
21036;SDS011;10677;50.942;4.028;2023-04-24T08:32:31;16.98;;;6.65;;
21036;SDS011;10677;50.942;4.028;2023-04-24T08:34:57;16.75;;;6.55;;
21036;SDS011;10677;50.942;4.028;2023-04-24T08:37:25;17.08;;;6.15;;
21036;SDS011;10677;50.942;4.028;2023-04-24T08:39:52;13.85;;;5.75;;
21036;SDS011;10677;50.942;4.028;2023-04-24T08:42:19;13.75;;;4.85;;
21036;SDS011;10677;50.942;4.028;2023-04-24T08:44:46;13.20;;;4.55;;
21036;SDS011;10677;50.942;4.028;2023-04-24T08:47:14;13.48;;;4.40;;
21036;SDS011;10677;50.942;4.028;2023-04-24T08:49:41;14.07;;;4.05;;
21036;SDS011;10677;50.942;4.028;2023-04-24T08:52:08;12.57;;;4.70;;
21036;SDS011;10677;50.942;4.028;2023-04-24T08:54:37;12.18;;;3.88;;
21036;SDS011;10677;50.942;4.028;2023-04-24T08:57:05;9.50;;;4.78;;
21036;SDS011;10677;50.942;4.028;2023-04-24T08:59:35;13.80;;;3.85;;
21036;SDS011;10677;50.942;4.028;2023-04-24T09:02:02;18.45;;;4.78;;
21036;SDS011;10677;50.942;4.028;2023-04-24T09:04:29;11.73;;;5.18;;
21036;SDS011;10677;50.942;4.028;2023-04-24T09:06:58;15.73;;;4.78;;
21036;SDS011;10677;50.942;4.028;2023-04-24T09:09:24;10.80;;;4.45;;
21036;SDS011;10677;50.942;4.028;2023-04-24T09:11:51;13.27;;;5.47;;
21036;SDS011;10677;50.942;4.028;2023-04-24T09:14:19;11.88;;;3.72;;
21036;SDS011;10677;50.942;4.028;2023-04-24T09:16:46;11.07;;;4.47;;
21036;SDS011;10677;50.942;4.028;2023-04-24T09:19:12;11.10;;;4.10;;
21036;SDS011;10677;50.942;4.028;2023-04-24T09:21:38;10.43;;;4.85;;
21036;SDS011;10677;50.942;4.028;2023-04-24T09:24:07;8.38;;;3.83;;
21036;SDS011;10677;50.942;4.028;2023-04-24T09:26:39;10.43;;;3.60;;
21036;SDS011;10677;50.942;4.028;2023-04-24T09:29:05;8.98;;;3.30;;
21036;SDS011;10677;50.942;4.028;2023-04-24T09:31:31;11.15;;;3.70;;
21036;SDS011;10677;50.942;4.028;2023-04-24T09:34:01;13.27;;;3.78;;
21036;SDS011;10677;50.942;4.028;2023-04-24T09:36:34;10.65;;;3.63;;
21036;SDS011;10677;50.942;4.028;2023-04-24T09:39:13;12.60;;;4.35;;
21036;SDS011;10677;50.942;4.028;2023-04-24T09:41:49;13.43;;;4.53;;
21036;SDS011;10677;50.942;4.028;2023-04-24T09:44:16;9.15;;;3.90;;
21036;SDS011;10677;50.942;4.028;2023-04-24T09:46:48;9.52;;;4.07;;
21036;SDS011;10677;50.942;4.028;2023-04-24T09:49:16;8.93;;;3.63;;
21036;SDS011;10677;50.942;4.028;2023-04-24T09:51:47;8.63;;;3.78;;
21036;SDS011;10677;50.942;4.028;2023-04-24T09:54:13;8.55;;;3.47;;
21036;SDS011;10677;50.942;4.028;2023-04-24T09:56:47;8.93;;;3.92;;
21036;SDS011;10677;50.942;4.028;2023-04-24T09:59:18;10.75;;;4.30;;
21036;SDS011;10677;50.942;4.028;2023-04-24T10:01:44;10.63;;;4.55;;
21036;SDS011;10677;50.942;4.028;2023-04-24T10:04:20;9.98;;;4.38;;
21036;SDS011;10677;50.942;4.028;2023-04-24T10:06:48;12.32;;;3.88;;
21036;SDS011;10677;50.942;4.028;2023-04-24T10:09:16;10.35;;;3.85;;
21036;SDS011;10677;50.942;4.028;2023-04-24T10:11:46;6.55;;;3.30;;
21036;SDS011;10677;50.942;4.028;2023-04-24T10:14:14;6.80;;;3.65;;
21036;SDS011;10677;50.942;4.028;2023-04-24T10:16:41;10.35;;;4.65;;
21036;SDS011;10677;50.942;4.028;2023-04-24T10:19:08;13.88;;;3.90;;
21036;SDS011;10677;50.942;4.028;2023-04-24T10:21:34;7.93;;;3.80;;
21036;SDS011;10677;50.942;4.028;2023-04-24T10:24:04;10.20;;;3.78;;
21036;SDS011;10677;50.942;4.028;2023-04-24T10:26:32;8.52;;;3.38;;
21036;SDS011;10677;50.942;4.028;2023-04-24T10:28:59;8.02;;;4.13;;
21036;SDS011;10677;50.942;4.028;2023-04-24T10:31:25;8.98;;;3.38;;
21036;SDS011;10677;50.942;4.028;2023-04-24T10:33:52;8.95;;;3.50;;
21036;SDS011;10677;50.942;4.028;2023-04-24T10:36:19;7.68;;;3.30;;
21036;SDS011;10677;50.942;4.028;2023-04-24T10:38:48;8.20;;;3.45;;
21036;SDS011;10677;50.942;4.028;2023-04-24T10:41:15;7.90;;;3.53;;
21036;SDS011;10677;50.942;4.028;2023-04-24T10:43:48;9.57;;;3.92;;
21036;SDS011;10677;50.942;4.028;2023-04-24T10:46:29;8.82;;;3.72;;
21036;SDS011;10677;50.942;4.028;2023-04-24T10:48:55;7.88;;;4.20;;
21036;SDS011;10677;50.942;4.028;2023-04-24T10:51:23;8.00;;;3.63;;
21036;SDS011;10677;50.942;4.028;2023-04-24T10:53:51;9.32;;;3.97;;
21036;SDS011;10677;50.942;4.028;2023-04-24T10:56:17;8.98;;;4.43;;
21036;SDS011;10677;50.942;4.028;2023-04-24T10:58:50;9.90;;;4.15;;
21036;SDS011;10677;50.942;4.028;2023-04-24T11:01:25;10.30;;;4.30;;
21036;SDS011;10677;50.942;4.028;2023-04-24T11:03:57;11.25;;;4.43;;
21036;SDS011;10677;50.942;4.028;2023-04-24T11:06:35;10.43;;;4.93;;
21036;SDS011;10677;50.942;4.028;2023-04-24T11:09:09;8.75;;;4.53;;
21036;SDS011;10677;50.942;4.028;2023-04-24T11:11:38;11.82;;;5.22;;
21036;SDS011;10677;50.942;4.028;2023-04-24T11:14:14;10.20;;;4.70;;
21036;SDS011;10677;50.942;4.028;2023-04-24T11:29:42;10.32;;;4.40;;
21036;SDS011;10677;50.942;4.028;2023-04-24T11:32:25;9.80;;;4.65;;
21036;SDS011;10677;50.942;4.028;2023-04-24T11:35:01;9.75;;;5.18;;
21036;SDS011;10677;50.942;4.028;2023-04-24T11:37:37;11.25;;;4.85;;
21036;SDS011;10677;50.942;4.028;2023-04-24T11:40:09;10.35;;;4.60;;
21036;SDS011;10677;50.942;4.028;2023-04-24T11:42:40;10.80;;;5.47;;
21036;SDS011;10677;50.942;4.028;2023-04-24T11:45:11;11.27;;;5.25;;
21036;SDS011;10677;50.942;4.028;2023-04-24T11:47:38;10.10;;;5.40;;
21036;SDS011;10677;50.942;4.028;2023-04-24T11:50:05;11.77;;;5.43;;
21036;SDS011;10677;50.942;4.028;2023-04-24T11:52:33;10.88;;;5.45;;
21036;SDS011;10677;50.942;4.028;2023-04-24T11:55:02;11.65;;;4.68;;
21036;SDS011;10677;50.942;4.028;2023-04-24T11:57:29;7.53;;;4.05;;
21036;SDS011;10677;50.942;4.028;2023-04-24T12:00:02;8.85;;;4.50;;
21036;SDS011;10677;50.942;4.028;2023-04-24T12:02:30;8.40;;;4.60;;
21036;SDS011;10677;50.942;4.028;2023-04-24T12:04:56;8.18;;;4.60;;
21036;SDS011;10677;50.942;4.028;2023-04-24T12:07:22;9.45;;;4.88;;
21036;SDS011;10677;50.942;4.028;2023-04-24T12:09:58;8.93;;;4.00;;
21036;SDS011;10677;50.942;4.028;2023-04-24T12:12:28;9.10;;;3.92;;
21036;SDS011;10677;50.942;4.028;2023-04-24T12:17:41;9.10;;;3.90;;
21036;SDS011;10677;50.942;4.028;2023-04-24T12:20:07;8.68;;;3.78;;
21036;SDS011;10677;50.942;4.028;2023-04-24T12:25:12;5.45;;;2.75;;
21036;SDS011;10677;50.942;4.028;2023-04-24T12:27:39;6.70;;;3.05;;
21036;SDS011;10677;50.942;4.028;2023-04-24T12:30:05;5.80;;;3.03;;
21036;SDS011;10677;50.942;4.028;2023-04-24T12:32:40;6.55;;;3.05;;
21036;SDS011;10677;50.942;4.028;2023-04-24T12:35:18;8.07;;;2.80;;
21036;SDS011;10677;50.942;4.028;2023-04-24T12:37:45;6.35;;;2.53;;
21036;SDS011;10677;50.942;4.028;2023-04-24T12:40:11;10.57;;;2.88;;
21036;SDS011;10677;50.942;4.028;2023-04-24T12:42:42;5.80;;;2.88;;
21036;SDS011;10677;50.942;4.028;2023-04-24T12:45:11;6.82;;;2.47;;
21036;SDS011;10677;50.942;4.028;2023-04-24T12:47:40;5.75;;;2.25;;
21036;SDS011;10677;50.942;4.028;2023-04-24T12:50:08;8.60;;;2.63;;
21036;SDS011;10677;50.942;4.028;2023-04-24T12:52:35;6.68;;;2.90;;
21036;SDS011;10677;50.942;4.028;2023-04-24T12:55:01;8.55;;;2.75;;
21036;SDS011;10677;50.942;4.028;2023-04-24T12:57:29;9.20;;;2.75;;
21036;SDS011;10677;50.942;4.028;2023-04-24T12:59:58;4.43;;;2.17;;
21036;SDS011;10677;50.942;4.028;2023-04-24T13:02:24;6.03;;;2.38;;
21036;SDS011;10677;50.942;4.028;2023-04-24T13:04:58;5.43;;;2.22;;
21036;SDS011;10677;50.942;4.028;2023-04-24T13:07:26;5.55;;;2.13;;
21036;SDS011;10677;50.942;4.028;2023-04-24T13:09:54;5.63;;;2.08;;
21036;SDS011;10677;50.942;4.028;2023-04-24T13:12:20;9.50;;;2.50;;
21036;SDS011;10677;50.942;4.028;2023-04-24T13:14:50;3.65;;;1.58;;
21036;SDS011;10677;50.942;4.028;2023-04-24T13:17:16;4.53;;;1.38;;
21036;SDS011;10677;50.942;4.028;2023-04-24T13:19:43;3.42;;;1.75;;
21036;SDS011;10677;50.942;4.028;2023-04-24T13:22:10;8.27;;;1.75;;
21036;SDS011;10677;50.942;4.028;2023-04-24T13:24:37;4.82;;;1.50;;
21036;SDS011;10677;50.942;4.028;2023-04-24T13:27:04;6.03;;;1.60;;
21036;SDS011;10677;50.942;4.028;2023-04-24T13:29:30;6.75;;;2.30;;
21036;SDS011;10677;50.942;4.028;2023-04-24T13:31:56;8.18;;;1.80;;
21036;SDS011;10677;50.942;4.028;2023-04-24T13:34:23;3.17;;;1.33;;
21036;SDS011;10677;50.942;4.028;2023-04-24T13:36:54;4.68;;;1.60;;
21036;SDS011;10677;50.942;4.028;2023-04-24T13:39:21;4.72;;;1.40;;
21036;SDS011;10677;50.942;4.028;2023-04-24T13:41:48;6.15;;;1.48;;
21036;SDS011;10677;50.942;4.028;2023-04-24T13:44:14;3.80;;;1.20;;
21036;SDS011;10677;50.942;4.028;2023-04-24T13:46:41;5.60;;;1.50;;
21036;SDS011;10677;50.942;4.028;2023-04-24T13:49:09;4.65;;;1.42;;
21036;SDS011;10677;50.942;4.028;2023-04-24T13:51:35;5.32;;;1.67;;
21036;SDS011;10677;50.942;4.028;2023-04-24T13:54:01;7.68;;;1.38;;
21036;SDS011;10677;50.942;4.028;2023-04-24T13:56:26;4.50;;;1.50;;
21036;SDS011;10677;50.942;4.028;2023-04-24T13:58:52;5.03;;;1.55;;
21036;SDS011;10677;50.942;4.028;2023-04-24T14:01:20;5.15;;;1.27;;
21036;SDS011;10677;50.942;4.028;2023-04-24T14:03:50;4.03;;;1.20;;
21036;SDS011;10677;50.942;4.028;2023-04-24T14:06:18;3.50;;;1.40;;
21036;SDS011;10677;50.942;4.028;2023-04-24T14:08:44;3.78;;;1.20;;
21036;SDS011;10677;50.942;4.028;2023-04-24T14:11:11;4.88;;;1.27;;
21036;SDS011;10677;50.942;4.028;2023-04-24T14:13:37;4.57;;;1.42;;
21036;SDS011;10677;50.942;4.028;2023-04-24T14:16:04;4.05;;;1.20;;
21036;SDS011;10677;50.942;4.028;2023-04-24T14:18:30;4.28;;;1.13;;
21036;SDS011;10677;50.942;4.028;2023-04-24T14:20:57;3.95;;;1.15;;
21036;SDS011;10677;50.942;4.028;2023-04-24T14:23:23;3.22;;;0.93;;
21036;SDS011;10677;50.942;4.028;2023-04-24T14:25:49;4.57;;;1.30;;
21036;SDS011;10677;50.942;4.028;2023-04-24T14:28:17;3.70;;;1.20;;
21036;SDS011;10677;50.942;4.028;2023-04-24T14:30:44;4.03;;;0.93;;
21036;SDS011;10677;50.942;4.028;2023-04-24T14:33:10;6.05;;;1.10;;
21036;SDS011;10677;50.942;4.028;2023-04-24T14:35:37;6.18;;;1.38;;
21036;SDS011;10677;50.942;4.028;2023-04-24T14:38:02;6.78;;;1.50;;
21036;SDS011;10677;50.942;4.028;2023-04-24T14:40:28;6.25;;;1.35;;
21036;SDS011;10677;50.942;4.028;2023-04-24T14:42:54;4.25;;;1.00;;
21036;SDS011;10677;50.942;4.028;2023-04-24T14:45:20;6.35;;;1.10;;
21036;SDS011;10677;50.942;4.028;2023-04-24T14:47:45;3.30;;;1.40;;
21036;SDS011;10677;50.942;4.028;2023-04-24T14:50:11;5.20;;;1.20;;